Terminal Aerodrome Forecast
Issued by NWS Portland, OR

Home | Current Version | Previous Version | Text Only | Print | Product List | Glossary On
Versions: 1 2 3 4 5 6 7 8 9 10 11 12 13 14 15 16 17 18 19 20 21 22 23 24 25 26 27 28 29 30 31 32 33 34 35
000
FTUS46 KPQR 251133
TAFTTD
TAF
KTTD 251133Z 2512/2612 07004KT P6SM BKN050
     FM251900 36004KT P6SM OVC050
     FM260100 19005KT P6SM OVC050
     FM260900 15008KT P6SM -RA OVC025=

USA.gov is the U.S. government's official web portal to all federal, state and local government web resources and services.